createdAt,value
2019-02-07T00:00:42.790Z,5.00
2019-02-07T00:01:42.783Z,5.04
2019-02-07T00:02:42.777Z,5.04
2019-02-07T00:03:42.761Z,5.05
2019-02-07T00:04:42.751Z,5.08
2019-02-07T00:05:42.743Z,5.14
2019-02-07T00:06:42.730Z,5.08
2019-02-07T00:07:42.725Z,5.07
2019-02-07T00:08:42.712Z,5.08
2019-02-07T00:09:42.703Z,5.14
2019-02-07T00:10:42.698Z,5.10
2019-02-07T00:11:42.687Z,5.04
2019-02-07T00:12:42.674Z,5.05
2019-02-07T00:13:42.675Z,5.04
2019-02-07T00:14:42.659Z,5.00
2019-02-07T00:15:42.654Z,5.04
2019-02-07T00:16:42.632Z,5.07
2019-02-07T00:17:42.634Z,5.10
2019-02-07T00:18:42.623Z,5.08
2019-02-07T00:19:42.613Z,5.07
2019-02-07T00:20:42.608Z,5.07
2019-02-07T00:21:42.586Z,5.12
2019-02-07T00:22:42.590Z,5.08
2019-02-07T00:23:42.579Z,5.10
2019-02-07T00:24:43.301Z,5.14
2019-02-07T00:25:42.559Z,5.14
2019-02-07T00:26:42.551Z,5.12
2019-02-07T00:27:42.539Z,5.08
2019-02-07T00:28:42.535Z,5.14
2019-02-07T00:29:42.520Z,5.12
2019-02-07T00:30:42.515Z,5.08
2019-02-07T00:31:42.505Z,5.11
2019-02-07T00:32:42.492Z,5.12
2019-02-07T00:33:42.490Z,5.15
2019-02-07T00:34:42.471Z,5.11
2019-02-07T00:35:42.477Z,5.14
2019-02-07T00:36:42.457Z,5.15
2019-02-07T00:37:42.447Z,5.15
2019-02-07T00:38:42.530Z,5.15
2019-02-07T00:39:42.430Z,5.18
2019-02-07T00:40:42.424Z,5.18
2019-02-07T00:41:42.405Z,5.20
2019-02-07T00:42:42.400Z,5.14
2019-02-07T00:43:42.399Z,5.18
2019-02-07T00:44:50.440Z,5.15
2019-02-07T00:45:42.375Z,5.14
2019-02-07T00:46:42.362Z,5.10
2019-02-07T00:47:42.356Z,5.07
2019-02-07T00:48:42.347Z,5.04
2019-02-07T00:49:42.341Z,5.12
2019-02-07T00:50:42.332Z,5.14
2019-02-07T00:51:42.316Z,5.14
2019-02-07T00:52:42.309Z,5.05
2019-02-07T00:53:42.301Z,5.02
2019-02-07T00:54:42.288Z,5.00
2019-02-07T00:55:42.284Z,5.00
2019-02-07T00:56:42.271Z,4.93
2019-02-07T00:57:42.266Z,4.86
2019-02-07T00:58:42.254Z,4.89
2019-02-07T00:59:42.246Z,4.75
2019-02-07T01:00:42.236Z,4.84
2019-02-07T01:01:42.227Z,4.86
2019-02-07T01:02:42.215Z,4.73
2019-02-07T01:03:42.209Z,4.75
2019-02-07T01:04:42.208Z,4.77
2019-02-07T01:05:42.194Z,4.68
2019-02-07T01:06:42.180Z,4.66
2019-02-07T01:07:42.173Z,4.68
2019-02-07T01:08:42.160Z,4.68
2019-02-07T01:09:42.156Z,4.78
2019-02-07T01:10:42.144Z,4.71
2019-02-07T01:11:42.134Z,4.78
2019-02-07T01:12:42.129Z,4.74
2019-02-07T01:13:42.117Z,4.84
2019-02-07T01:14:42.107Z,4.75
2019-02-07T01:15:42.097Z,4.68
2019-02-07T01:16:42.087Z,4.73
2019-02-07T01:17:42.077Z,4.80
2019-02-07T01:18:42.074Z,4.63
2019-02-07T01:19:42.059Z,4.74
2019-02-07T01:20:42.048Z,4.71
2019-02-07T01:21:42.136Z,4.75
2019-02-07T01:22:42.030Z,4.71
2019-02-07T01:23:42.022Z,4.66
2019-02-07T01:24:42.011Z,4.66
2019-02-07T01:25:42.002Z,4.75
2019-02-07T01:26:41.995Z,4.75
2019-02-07T01:27:41.983Z,4.74
2019-02-07T01:28:41.976Z,4.73
2019-02-07T01:29:41.966Z,4.77
2019-02-07T01:30:41.956Z,4.75
2019-02-07T01:31:41.946Z,4.67
2019-02-07T01:32:41.935Z,4.68
2019-02-07T01:33:41.930Z,4.60
2019-02-07T01:34:41.919Z,4.55
2019-02-07T01:35:41.911Z,4.53
2019-02-07T01:36:41.899Z,4.55
2019-02-07T01:37:41.894Z,4.50
2019-02-07T01:38:41.880Z,4.49
2019-02-07T01:39:41.877Z,4.40
2019-02-07T01:40:41.862Z,4.42
2019-02-07T01:41:41.856Z,4.40
2019-02-07T01:42:41.844Z,4.44
2019-02-07T01:43:41.834Z,4.38
2019-02-07T01:44:41.822Z,4.35
2019-02-07T01:45:41.814Z,4.37
2019-02-07T01:46:41.807Z,4.37
2019-02-07T01:47:41.797Z,4.22
2019-02-07T01:48:41.786Z,4.24
2019-02-07T01:49:41.781Z,4.22
2019-02-07T01:50:41.768Z,4.17
2019-02-07T01:51:41.760Z,4.20
2019-02-07T01:52:41.751Z,4.13
2019-02-07T01:53:41.742Z,4.10
2019-02-07T01:54:41.729Z,4.12
2019-02-07T01:55:41.720Z,4.17
2019-02-07T01:56:41.712Z,3.99
2019-02-07T01:57:41.703Z,4.04
2019-02-07T01:58:41.692Z,3.92
2019-02-07T01:59:41.684Z,3.86
2019-02-07T02:00:41.677Z,3.91
2019-02-07T02:01:41.662Z,3.86
2019-02-07T02:02:41.653Z,3.84
2019-02-07T02:03:41.646Z,3.94
2019-02-07T02:04:41.642Z,3.92
2019-02-07T02:05:41.625Z,3.86
2019-02-07T02:06:41.616Z,3.88
2019-02-07T02:07:41.605Z,3.84
2019-02-07T02:08:41.597Z,3.84
2019-02-07T02:09:41.585Z,3.78
2019-02-07T02:10:41.577Z,3.86
2019-02-07T02:11:41.565Z,3.81
2019-02-07T02:12:41.557Z,3.83
2019-02-07T02:13:41.545Z,3.78
2019-02-07T02:14:41.541Z,3.77
2019-02-07T02:15:41.526Z,3.73
2019-02-07T02:16:41.520Z,3.76
2019-02-07T02:17:41.508Z,3.76
2019-02-07T02:18:41.497Z,3.74
2019-02-07T02:19:41.489Z,3.74
2019-02-07T02:20:41.480Z,3.74
2019-02-07T02:21:41.468Z,3.78
2019-02-07T02:22:41.459Z,3.74
2019-02-07T02:23:41.453Z,3.74
2019-02-07T02:24:41.441Z,3.66
2019-02-07T02:25:41.430Z,3.69
2019-02-07T02:26:41.512Z,3.65
2019-02-07T02:27:41.412Z,3.65
2019-02-07T02:28:41.400Z,3.65
2019-02-07T02:29:41.390Z,3.66
2019-02-07T02:30:41.380Z,3.59
2019-02-07T02:31:41.369Z,3.66
2019-02-07T02:32:41.359Z,3.60
2019-02-07T02:33:41.349Z,3.56
2019-02-07T02:34:41.340Z,3.56
2019-02-07T02:35:41.330Z,3.56
2019-02-07T02:36:41.318Z,3.53
2019-02-07T02:37:41.313Z,3.60
2019-02-07T02:38:41.297Z,3.58
2019-02-07T02:39:41.293Z,3.53
2019-02-07T02:40:41.282Z,3.53
2019-02-07T02:41:41.273Z,3.58
2019-02-07T02:42:41.266Z,3.58
2019-02-07T02:43:41.253Z,3.51
2019-02-07T02:44:41.241Z,3.51
2019-02-07T02:45:41.232Z,3.53
2019-02-07T02:46:41.220Z,3.55
2019-02-07T02:47:41.209Z,3.53
2019-02-07T02:48:41.195Z,3.53
2019-02-07T02:49:41.190Z,3.60
2019-02-07T02:50:41.182Z,3.53
2019-02-07T02:51:41.177Z,3.53
2019-02-07T02:52:41.163Z,3.55
2019-02-07T02:53:41.155Z,3.47
2019-02-07T02:54:41.144Z,3.50
2019-02-07T02:55:41.135Z,3.45
2019-02-07T02:56:41.124Z,3.55
2019-02-07T02:57:41.114Z,3.50
2019-02-07T02:58:41.105Z,3.62
2019-02-07T02:59:41.094Z,3.59
2019-02-07T03:00:41.082Z,3.51
2019-02-07T03:01:41.075Z,3.53
2019-02-07T03:02:41.064Z,3.50
2019-02-07T03:03:41.053Z,3.44
2019-02-07T03:04:41.040Z,3.51
2019-02-07T03:05:41.033Z,3.45
2019-02-07T03:06:41.018Z,3.56
2019-02-07T03:07:41.014Z,3.47
2019-02-07T03:08:41.008Z,3.47
2019-02-07T03:09:40.996Z,3.47
2019-02-07T03:10:40.984Z,3.40
2019-02-07T03:11:40.980Z,3.41
2019-02-07T03:12:40.964Z,3.36
2019-02-07T03:13:40.953Z,3.40
2019-02-07T03:14:40.947Z,3.36
2019-02-07T03:15:49.259Z,3.34
2019-02-07T03:16:40.923Z,3.36
2019-02-07T03:17:40.916Z,3.23
2019-02-07T03:18:40.904Z,3.31
2019-02-07T03:19:40.894Z,3.32
2019-02-07T03:20:40.883Z,3.23
2019-02-07T03:21:40.872Z,3.29
2019-02-07T03:22:40.864Z,3.23
2019-02-07T03:23:40.853Z,3.29
2019-02-07T03:24:40.842Z,3.19
2019-02-07T03:25:40.836Z,3.22
2019-02-07T03:26:40.825Z,3.21
2019-02-07T03:27:40.815Z,3.22
2019-02-07T03:28:40.800Z,3.16
2019-02-07T03:29:40.795Z,3.19
2019-02-07T03:30:40.789Z,3.18
2019-02-07T03:31:40.771Z,3.13
2019-02-07T03:32:40.769Z,3.19
2019-02-07T03:33:40.757Z,3.11
2019-02-07T03:34:40.735Z,3.08
2019-02-07T03:35:40.734Z,3.19
2019-02-07T03:36:40.730Z,3.07
2019-02-07T03:37:40.716Z,3.14
2019-02-07T03:38:40.693Z,3.10
2019-02-07T03:39:40.695Z,3.10
2019-02-07T03:40:40.678Z,3.03
2019-02-07T03:41:40.675Z,3.04
2019-02-07T03:42:40.661Z,3.03
2019-02-07T03:43:40.653Z,3.01
2019-02-07T03:44:40.640Z,2.92
2019-02-07T03:45:40.635Z,3.01
2019-02-07T03:46:40.613Z,2.97
2019-02-07T03:47:40.610Z,2.95
2019-02-07T03:48:40.605Z,3.03
2019-02-07T03:49:40.592Z,2.93
2019-02-07T03:50:40.586Z,2.92
2019-02-07T03:51:40.570Z,2.97
2019-02-07T03:52:40.665Z,2.98
2019-02-07T03:53:40.554Z,2.95
2019-02-07T03:54:40.534Z,2.98
2019-02-07T03:55:40.536Z,2.92
2019-02-07T03:56:40.519Z,2.98
2019-02-07T03:57:40.509Z,2.97
2019-02-07T03:58:40.498Z,3.00
2019-02-07T03:59:40.488Z,2.95
2019-02-07T04:00:40.477Z,2.95
2019-02-07T04:01:40.464Z,2.95
2019-02-07T04:02:40.814Z,2.93
2019-02-07T04:03:40.446Z,3.00
2019-02-07T04:04:40.434Z,2.93
2019-02-07T04:05:40.424Z,2.85
2019-02-07T04:06:40.414Z,2.85
2019-02-07T04:07:40.408Z,2.85
2019-02-07T04:08:40.394Z,2.79
2019-02-07T04:09:40.385Z,2.85
2019-02-07T04:10:43.082Z,2.80
2019-02-07T04:11:40.361Z,2.82
2019-02-07T04:12:40.354Z,2.80
2019-02-07T04:13:40.345Z,2.83
2019-02-07T04:14:40.332Z,2.82
2019-02-07T04:15:40.324Z,2.71
2019-02-07T04:16:40.313Z,2.64
2019-02-07T04:17:40.300Z,2.69
2019-02-07T04:18:40.296Z,2.65
2019-02-07T04:19:40.281Z,2.61
2019-02-07T04:20:40.271Z,2.65
2019-02-07T04:21:40.259Z,2.60
2019-02-07T04:22:40.250Z,2.64
2019-02-07T04:23:40.239Z,2.61
2019-02-07T04:24:40.229Z,2.64
2019-02-07T04:25:40.217Z,2.57
2019-02-07T04:26:40.218Z,2.54
2019-02-07T04:27:40.189Z,2.61
2019-02-07T04:28:40.186Z,2.56
2019-02-07T04:29:40.180Z,2.54
2019-02-07T04:30:40.166Z,2.50
2019-02-07T04:31:40.160Z,2.50
2019-02-07T04:32:40.145Z,2.49
2019-02-07T04:33:40.138Z,2.51
2019-02-07T04:34:40.127Z,2.56
2019-02-07T04:35:40.119Z,2.47
2019-02-07T04:36:40.102Z,2.50
2019-02-07T04:37:40.091Z,2.54
2019-02-07T04:38:40.081Z,2.54
2019-02-07T04:39:40.078Z,2.60
2019-02-07T04:40:40.059Z,2.46
2019-02-07T04:41:40.049Z,2.43
2019-02-07T04:42:40.067Z,2.43
2019-02-07T04:43:40.031Z,2.46
2019-02-07T04:44:40.021Z,2.38
2019-02-07T04:45:40.005Z,2.44
2019-02-07T04:46:39.998Z,2.35
2019-02-07T04:47:39.991Z,2.29
2019-02-07T04:48:39.984Z,2.42
2019-02-07T04:49:39.970Z,2.31
2019-02-07T04:50:39.971Z,2.29
2019-02-07T04:51:39.946Z,2.36
2019-02-07T04:52:39.934Z,2.29
2019-02-07T04:53:39.926Z,2.28
2019-02-07T04:54:39.913Z,2.29
2019-02-07T04:55:39.904Z,2.25
2019-02-07T04:56:39.893Z,2.22
2019-02-07T04:57:39.882Z,2.20
2019-02-07T04:58:39.869Z,2.25
2019-02-07T04:59:39.863Z,2.22
2019-02-07T05:00:39.852Z,2.24
2019-02-07T05:01:39.838Z,2.22
2019-02-07T05:02:39.830Z,2.20
2019-02-07T05:03:39.819Z,2.11
2019-02-07T05:04:39.810Z,2.14
2019-02-07T05:05:39.801Z,2.13
2019-02-07T05:06:39.787Z,2.17
2019-02-07T05:07:39.774Z,2.14
2019-02-07T05:08:39.764Z,2.13
2019-02-07T05:09:39.753Z,2.14
2019-02-07T05:10:39.745Z,2.18
2019-02-07T05:11:39.743Z,2.22
2019-02-07T05:12:39.722Z,2.20
2019-02-07T05:13:39.709Z,2.18
2019-02-07T05:14:39.698Z,2.11
2019-02-07T05:15:39.688Z,2.13
2019-02-07T05:16:43.567Z,2.14
2019-02-07T05:17:39.667Z,2.14
2019-02-07T05:18:39.659Z,2.22
2019-02-07T05:19:39.643Z,2.15
2019-02-07T05:20:39.638Z,2.15
2019-02-07T05:21:39.626Z,2.15
2019-02-07T05:22:39.613Z,2.13
2019-02-07T05:23:39.607Z,2.13
2019-02-07T05:24:39.591Z,2.15
2019-02-07T05:25:39.582Z,2.14
2019-02-07T05:26:39.574Z,2.24
2019-02-07T05:27:39.566Z,2.29
2019-02-07T05:28:39.548Z,2.26
2019-02-07T05:29:39.546Z,2.28
2019-02-07T05:30:39.524Z,2.33
2019-02-07T05:31:39.521Z,2.29
2019-02-07T05:32:39.505Z,2.29
2019-02-07T05:33:39.495Z,2.32
2019-02-07T05:34:39.487Z,2.17
2019-02-07T05:35:39.483Z,2.25
2019-02-07T05:36:42.190Z,2.24
2019-02-07T05:37:39.454Z,2.26
2019-02-07T05:38:39.440Z,2.31
2019-02-07T05:39:39.435Z,2.26
2019-02-07T05:40:39.419Z,2.26
2019-02-07T05:41:39.409Z,2.28
2019-02-07T05:42:39.398Z,2.29
2019-02-07T05:43:39.391Z,2.28
2019-02-07T05:44:39.374Z,2.25
2019-02-07T05:45:39.368Z,2.26
2019-02-07T05:46:50.492Z,2.20
2019-02-07T05:47:39.344Z,2.28
2019-02-07T05:48:39.336Z,2.22
2019-02-07T05:49:39.344Z,2.13
2019-02-07T05:50:39.310Z,2.22
2019-02-07T05:51:39.306Z,2.22
2019-02-07T05:52:39.289Z,2.15
2019-02-07T05:53:39.275Z,2.20
2019-02-07T05:54:39.294Z,2.11
2019-02-07T05:55:39.259Z,2.17
2019-02-07T05:56:39.250Z,2.17
2019-02-07T05:57:39.236Z,2.25
2019-02-07T05:58:39.225Z,2.17
2019-02-07T05:59:39.209Z,2.14
2019-02-07T06:00:39.202Z,2.14
2019-02-07T06:01:39.192Z,2.15
2019-02-07T06:02:39.182Z,2.18
2019-02-07T06:03:39.171Z,2.15
2019-02-07T06:04:39.156Z,2.11
2019-02-07T06:05:39.153Z,2.10
2019-02-07T06:06:39.140Z,2.14
2019-02-07T06:07:39.129Z,2.15
2019-02-07T06:08:39.118Z,2.18
2019-02-07T06:09:39.101Z,2.14
2019-02-07T06:10:39.102Z,2.13
2019-02-07T06:11:39.080Z,2.11
2019-02-07T06:12:39.072Z,2.15
2019-02-07T06:13:39.062Z,2.10
2019-02-07T06:14:39.054Z,2.14
2019-02-07T06:15:39.040Z,2.25
2019-02-07T06:16:39.028Z,2.13
2019-02-07T06:17:39.019Z,2.18
2019-02-07T06:18:39.002Z,2.20
2019-02-07T06:19:38.996Z,2.13
2019-02-07T06:20:38.987Z,2.18
2019-02-07T06:21:38.974Z,2.14
2019-02-07T06:22:38.968Z,2.18
2019-02-07T06:23:38.957Z,2.24
2019-02-07T06:24:38.939Z,2.24
2019-02-07T06:25:38.926Z,2.20
2019-02-07T06:26:38.918Z,2.24
2019-02-07T06:27:38.987Z,2.11
2019-02-07T06:28:38.896Z,2.14
2019-02-07T06:29:38.883Z,2.22
2019-02-07T06:30:38.881Z,2.29
2019-02-07T06:31:38.874Z,2.25
2019-02-07T06:32:38.853Z,2.17
2019-02-07T06:33:38.844Z,2.20
2019-02-07T06:34:38.840Z,2.22
2019-02-07T06:35:38.823Z,2.13
2019-02-07T06:36:38.813Z,2.25
2019-02-07T06:37:38.803Z,2.18
2019-02-07T06:38:38.804Z,2.25
2019-02-07T06:39:38.789Z,2.24
2019-02-07T06:40:38.763Z,2.29
2019-02-07T06:41:38.758Z,2.26
2019-02-07T06:42:38.747Z,2.29
2019-02-07T06:43:38.745Z,2.29
2019-02-07T06:44:38.723Z,2.33
2019-02-07T06:45:38.718Z,2.32
2019-02-07T06:46:38.699Z,2.28
2019-02-07T06:47:38.691Z,2.31
2019-02-07T06:48:38.673Z,2.31
2019-02-07T06:49:38.670Z,2.33
2019-02-07T06:50:38.657Z,2.33
2019-02-07T06:51:38.645Z,2.31
2019-02-07T06:52:38.637Z,2.28
2019-02-07T06:53:38.622Z,2.36
2019-02-07T06:54:38.705Z,2.32
2019-02-07T06:55:38.596Z,2.39
2019-02-07T06:56:38.592Z,2.35
2019-02-07T06:57:38.577Z,2.39
2019-02-07T06:58:38.568Z,2.35
2019-02-07T06:59:38.561Z,2.49
2019-02-07T07:00:38.546Z,2.42
2019-02-07T07:01:38.538Z,2.50
2019-02-07T07:02:38.525Z,2.49
2019-02-07T07:03:38.514Z,2.47
2019-02-07T07:04:38.502Z,2.47
2019-02-07T07:05:38.491Z,2.46
2019-02-07T07:06:38.480Z,2.54
2019-02-07T07:07:38.480Z,2.62
2019-02-07T07:08:38.458Z,2.57
2019-02-07T07:09:38.445Z,2.61
2019-02-07T07:10:38.438Z,2.62
2019-02-07T07:11:38.426Z,2.57
2019-02-07T07:12:38.412Z,2.62
2019-02-07T07:13:38.402Z,2.71
2019-02-07T07:14:38.393Z,2.64
2019-02-07T07:15:40.269Z,2.60
2019-02-07T07:16:38.359Z,2.72
2019-02-07T07:17:38.354Z,2.67
2019-02-07T07:18:38.348Z,2.62
2019-02-07T07:19:38.341Z,2.75
2019-02-07T07:20:38.334Z,2.77
2019-02-07T07:21:38.321Z,2.72
2019-02-07T07:22:38.304Z,2.80
2019-02-07T07:23:38.298Z,2.82
2019-02-07T07:24:38.283Z,2.77
2019-02-07T07:25:38.271Z,2.82
2019-02-07T07:26:38.266Z,2.83
2019-02-07T07:27:38.287Z,2.85
2019-02-07T07:28:38.241Z,2.87
2019-02-07T07:29:38.228Z,2.90
2019-02-07T07:30:38.223Z,2.89
2019-02-07T07:31:38.206Z,2.93
2019-02-07T07:32:38.213Z,2.97
2019-02-07T07:33:38.184Z,2.98
2019-02-07T07:34:38.183Z,3.01
2019-02-07T07:35:38.165Z,3.04
2019-02-07T07:36:38.154Z,2.97
2019-02-07T07:37:39.139Z,3.04
2019-02-07T07:38:38.133Z,3.01
2019-02-07T07:39:38.122Z,3.10
2019-02-07T07:40:38.110Z,3.05
2019-02-07T07:41:38.096Z,3.03
2019-02-07T07:42:38.090Z,3.05
2019-02-07T07:43:38.080Z,3.08
2019-02-07T07:44:38.063Z,3.10
2019-02-07T07:45:38.053Z,3.18
2019-02-07T07:46:38.045Z,3.10
2019-02-07T07:47:38.037Z,3.03
2019-02-07T07:48:38.026Z,3.11
2019-02-07T07:49:38.019Z,3.19
2019-02-07T07:50:38.007Z,3.22
2019-02-07T07:51:37.997Z,3.16
2019-02-07T07:52:37.974Z,3.19
2019-02-07T07:53:37.973Z,3.14
2019-02-07T07:54:37.966Z,3.14
2019-02-07T07:55:37.952Z,3.11
2019-02-07T07:56:37.941Z,3.14
2019-02-07T07:57:37.929Z,3.21
2019-02-07T07:58:37.944Z,3.21
2019-02-07T07:59:37.909Z,3.19
2019-02-07T08:00:37.908Z,3.22
2019-02-07T08:01:37.887Z,3.29
2019-02-07T08:02:37.880Z,3.28
2019-02-07T08:03:37.864Z,3.28
2019-02-07T08:04:37.860Z,3.31
2019-02-07T08:05:37.847Z,3.37
2019-02-07T08:06:37.838Z,3.36
2019-02-07T08:07:37.824Z,3.32
2019-02-07T08:08:37.809Z,3.31
2019-02-07T08:09:37.802Z,3.36
2019-02-07T08:10:37.792Z,3.40
2019-02-07T08:11:37.778Z,3.34
2019-02-07T08:12:37.774Z,3.47
2019-02-07T08:13:37.765Z,3.44
2019-02-07T08:14:37.753Z,3.41
2019-02-07T08:15:37.743Z,3.48
2019-02-07T08:16:37.737Z,3.48
2019-02-07T08:17:47.163Z,3.45
2019-02-07T08:18:37.711Z,3.42
2019-02-07T08:19:37.701Z,3.48
2019-02-07T08:20:37.687Z,3.53
2019-02-07T08:21:37.687Z,3.55
2019-02-07T08:22:37.674Z,3.45
2019-02-07T08:23:37.658Z,3.50
2019-02-07T08:24:37.655Z,3.51
2019-02-07T08:25:37.632Z,3.51
2019-02-07T08:26:37.631Z,3.53
2019-02-07T08:27:37.615Z,3.53
2019-02-07T08:28:37.604Z,3.51
2019-02-07T08:29:37.588Z,3.55
2019-02-07T08:30:37.587Z,3.53
2019-02-07T08:31:37.572Z,3.66
2019-02-07T08:32:37.565Z,3.66
2019-02-07T08:33:39.306Z,3.70
2019-02-07T08:34:37.547Z,3.77
2019-02-07T08:35:37.538Z,3.74
2019-02-07T08:36:37.529Z,3.62
2019-02-07T08:37:37.513Z,3.65
2019-02-07T08:38:37.515Z,3.68
2019-02-07T08:39:37.491Z,3.74
2019-02-07T08:40:37.482Z,3.78
2019-02-07T08:41:37.468Z,3.80
2019-02-07T08:42:37.465Z,3.84
2019-02-07T08:43:37.452Z,3.81
2019-02-07T08:44:37.441Z,3.81
2019-02-07T08:45:37.436Z,3.84
2019-02-07T08:46:37.417Z,3.78
2019-02-07T08:47:37.411Z,3.78
2019-02-07T08:48:37.399Z,3.87
2019-02-07T08:49:37.394Z,3.86
2019-02-07T08:50:37.379Z,3.87
2019-02-07T08:51:37.374Z,3.80
2019-02-07T08:52:37.362Z,3.94
2019-02-07T08:53:37.350Z,3.88
2019-02-07T08:54:37.341Z,3.84
2019-02-07T08:55:37.335Z,3.92
2019-02-07T08:56:37.318Z,3.94
2019-02-07T08:57:37.310Z,3.98
2019-02-07T08:58:37.302Z,3.95
2019-02-07T08:59:37.292Z,3.84
2019-02-07T09:00:37.277Z,3.86
2019-02-07T09:01:37.474Z,3.87
2019-02-07T09:02:37.259Z,3.84
2019-02-07T09:03:37.250Z,3.84
2019-02-07T09:04:37.239Z,3.91
2019-02-07T09:05:37.227Z,3.91
2019-02-07T09:06:37.217Z,3.94
2019-02-07T09:07:37.210Z,3.87
2019-02-07T09:08:37.198Z,3.84
2019-02-07T09:09:37.183Z,3.84
2019-02-07T09:10:37.176Z,3.91
2019-02-07T09:11:37.166Z,3.88
2019-02-07T09:12:37.156Z,3.96
2019-02-07T09:13:37.143Z,4.01
2019-02-07T09:14:37.138Z,4.02
2019-02-07T09:15:37.129Z,4.08
2019-02-07T09:16:37.114Z,4.13
2019-02-07T09:17:37.102Z,4.17
2019-02-07T09:18:37.092Z,4.19
2019-02-07T09:19:37.086Z,4.16
2019-02-07T09:20:37.077Z,4.41
2019-02-07T09:21:37.072Z,4.38
2019-02-07T09:22:37.051Z,4.44
2019-02-07T09:23:37.045Z,4.53
2019-02-07T09:24:37.031Z,4.50
2019-02-07T09:25:37.835Z,4.58
2019-02-07T09:26:37.028Z,4.52
2019-02-07T09:27:37.004Z,4.66
2019-02-07T09:28:36.993Z,4.62
2019-02-07T09:29:36.983Z,4.63
2019-02-07T09:30:36.974Z,4.77
2019-02-07T09:31:36.963Z,4.73
2019-02-07T09:32:36.953Z,4.82
2019-02-07T09:33:36.946Z,4.86
2019-02-07T09:34:36.931Z,4.86
2019-02-07T09:35:36.926Z,4.92
2019-02-07T09:36:36.906Z,4.92
2019-02-07T09:37:36.905Z,5.04
2019-02-07T09:38:36.897Z,4.99
2019-02-07T09:39:36.895Z,4.94
2019-02-07T09:40:36.875Z,5.00
2019-02-07T09:41:36.865Z,5.00
2019-02-07T09:42:36.856Z,5.05
2019-02-07T09:43:36.849Z,5.18
2019-02-07T09:44:36.836Z,5.17
2019-02-07T09:45:36.827Z,5.21
2019-02-07T09:46:36.821Z,5.30
2019-02-07T09:47:36.810Z,5.15
2019-02-07T09:48:36.798Z,5.23
2019-02-07T09:49:36.793Z,5.21
2019-02-07T09:50:36.782Z,5.21
2019-02-07T09:51:36.772Z,5.25
2019-02-07T09:52:36.764Z,5.33
2019-02-07T09:53:36.756Z,5.35
2019-02-07T09:54:36.744Z,5.46
2019-02-07T09:55:36.735Z,5.54
2019-02-07T09:56:36.722Z,5.57
2019-02-07T09:57:36.716Z,5.65
2019-02-07T09:58:36.706Z,5.69
2019-02-07T09:59:36.697Z,5.66
2019-02-07T10:00:36.688Z,5.68
2019-02-07T10:01:36.676Z,5.71
2019-02-07T10:02:36.667Z,5.68
2019-02-07T10:03:36.659Z,5.73
2019-02-07T10:04:36.650Z,5.79
2019-02-07T10:05:36.642Z,5.73
2019-02-07T10:06:36.632Z,5.73
2019-02-07T10:07:36.622Z,5.65
2019-02-07T10:08:36.612Z,5.73
2019-02-07T10:09:36.602Z,5.84
2019-02-07T10:10:36.596Z,5.83
2019-02-07T10:11:36.585Z,5.80
2019-02-07T10:12:36.575Z,5.94
2019-02-07T10:13:36.566Z,5.84
2019-02-07T10:14:36.555Z,5.83
2019-02-07T10:15:36.551Z,5.73
2019-02-07T10:16:36.542Z,5.76
2019-02-07T10:17:36.537Z,5.72
2019-02-07T10:18:36.523Z,5.80
2019-02-07T10:19:36.514Z,5.82
2019-02-07T10:20:37.421Z,5.84
2019-02-07T10:21:36.495Z,5.83
2019-02-07T10:22:36.482Z,5.97
2019-02-07T10:23:36.475Z,5.98
2019-02-07T10:24:36.466Z,5.90
2019-02-07T10:25:36.467Z,5.99
2019-02-07T10:26:36.448Z,6.05
2019-02-07T10:27:36.440Z,6.02
2019-02-07T10:28:36.428Z,6.07
2019-02-07T10:29:36.419Z,6.11
2019-02-07T10:30:36.411Z,6.08
2019-02-07T10:31:36.403Z,6.05
2019-02-07T10:32:36.382Z,6.16
2019-02-07T10:33:36.380Z,6.09
2019-02-07T10:34:36.376Z,6.12
2019-02-07T10:35:36.366Z,6.12
2019-02-07T10:36:36.353Z,6.16
2019-02-07T10:37:36.347Z,6.16
2019-02-07T10:38:36.337Z,6.17
2019-02-07T10:39:36.329Z,6.26
2019-02-07T10:40:36.322Z,6.31
2019-02-07T10:41:36.313Z,6.39
2019-02-07T10:42:36.304Z,6.44
2019-02-07T10:43:36.291Z,6.33
2019-02-07T10:44:36.284Z,6.33
2019-02-07T10:45:36.279Z,6.36
2019-02-07T10:46:36.263Z,6.35
2019-02-07T10:47:36.256Z,6.31
2019-02-07T10:48:44.268Z,6.28
2019-02-07T10:49:36.237Z,6.17
2019-02-07T10:50:36.228Z,6.22
2019-02-07T10:51:36.220Z,6.20
2019-02-07T10:52:36.212Z,6.20
2019-02-07T10:53:36.208Z,6.26
2019-02-07T10:54:36.193Z,6.31
2019-02-07T10:55:36.186Z,6.33
2019-02-07T10:56:36.176Z,6.51
2019-02-07T10:57:36.166Z,6.52
2019-02-07T10:58:36.161Z,6.63
2019-02-07T10:59:36.149Z,6.69
2019-02-07T11:00:36.142Z,6.72
2019-02-07T11:01:36.135Z,6.72
2019-02-07T11:02:36.124Z,6.79
2019-02-07T11:03:36.114Z,6.79
2019-02-07T11:04:36.106Z,6.75
2019-02-07T11:05:36.098Z,6.78
2019-02-07T11:06:36.087Z,6.92
2019-02-07T11:07:36.088Z,6.89
2019-02-07T11:08:36.071Z,6.96
2019-02-07T11:09:36.065Z,6.95
2019-02-07T11:10:36.073Z,6.87
2019-02-07T11:11:36.047Z,6.85
2019-02-07T11:12:36.038Z,6.92
2019-02-07T11:13:36.030Z,6.85
2019-02-07T11:14:36.030Z,6.85
2019-02-07T11:15:36.013Z,6.93
2019-02-07T11:16:36.003Z,7.06
2019-02-07T11:17:36.000Z,7.10
2019-02-07T11:18:35.988Z,6.93
2019-02-07T11:19:35.981Z,6.95
2019-02-07T11:20:35.981Z,7.05
2019-02-07T11:21:35.964Z,7.07
2019-02-07T11:22:35.954Z,7.13
2019-02-07T11:23:35.947Z,7.15
2019-02-07T11:24:35.937Z,6.88
2019-02-07T11:25:35.929Z,7.05
2019-02-07T11:26:35.918Z,7.07
2019-02-07T11:27:35.915Z,7.02
2019-02-07T11:28:35.907Z,7.06
2019-02-07T11:29:35.896Z,7.02
2019-02-07T11:30:35.888Z,7.02
2019-02-07T11:31:35.881Z,7.10
2019-02-07T11:32:35.876Z,7.23
2019-02-07T11:33:35.866Z,7.20
2019-02-07T11:34:35.854Z,7.40
2019-02-07T11:35:35.848Z,7.43
2019-02-07T11:36:35.842Z,7.63
2019-02-07T11:37:35.835Z,7.79
2019-02-07T11:38:35.826Z,7.79
2019-02-07T11:39:35.811Z,7.90
2019-02-07T11:40:35.808Z,8.05
2019-02-07T11:41:35.807Z,8.15
2019-02-07T11:42:35.794Z,8.36
2019-02-07T11:43:35.785Z,8.33
2019-02-07T11:44:35.775Z,8.18
2019-02-07T11:45:35.769Z,8.26
2019-02-07T11:46:37.616Z,8.03
2019-02-07T11:47:35.754Z,8.09
2019-02-07T11:48:35.743Z,8.01
2019-02-07T11:49:35.737Z,8.06
2019-02-07T11:50:35.733Z,8.13
2019-02-07T11:51:35.721Z,7.95
2019-02-07T11:52:35.713Z,7.98
2019-02-07T11:53:35.707Z,7.97
2019-02-07T11:54:35.701Z,8.03
2019-02-07T11:55:35.696Z,7.95
2019-02-07T11:56:35.684Z,7.73
2019-02-07T11:57:35.675Z,7.79
2019-02-07T11:58:35.670Z,7.85
2019-02-07T11:59:35.667Z,7.76
2019-02-07T12:00:35.664Z,7.83
2019-02-07T12:01:35.648Z,7.88
2019-02-07T12:02:35.638Z,7.97
2019-02-07T12:03:35.637Z,7.98
2019-02-07T12:04:35.620Z,7.90
2019-02-07T12:05:35.617Z,7.85
2019-02-07T12:06:35.608Z,7.90
2019-02-07T12:07:35.601Z,7.83
2019-02-07T12:08:35.590Z,7.90
2019-02-07T12:09:35.587Z,7.98
2019-02-07T12:10:35.580Z,7.87
2019-02-07T12:11:35.568Z,7.82
2019-02-07T12:12:35.564Z,7.76
2019-02-07T12:13:35.553Z,7.70
2019-02-07T12:14:35.600Z,7.82
2019-02-07T12:15:35.541Z,7.88
2019-02-07T12:16:35.534Z,7.93
2019-02-07T12:17:35.524Z,7.79
2019-02-07T12:18:35.517Z,7.79
2019-02-07T12:19:35.511Z,7.79
2019-02-07T12:20:35.503Z,7.90
2019-02-07T12:21:35.497Z,7.77
2019-02-07T12:22:37.374Z,7.69
2019-02-07T12:23:35.479Z,7.69
2019-02-07T12:24:35.473Z,7.75
2019-02-07T12:25:35.467Z,7.77
2019-02-07T12:26:35.458Z,7.83
2019-02-07T12:27:35.452Z,7.69
2019-02-07T12:28:36.147Z,7.69
2019-02-07T12:29:35.439Z,7.75
2019-02-07T12:30:35.428Z,7.79
2019-02-07T12:31:35.421Z,7.61
2019-02-07T12:32:35.413Z,7.75
2019-02-07T12:33:35.406Z,7.70
2019-02-07T12:34:35.399Z,7.56
2019-02-07T12:35:35.391Z,7.72
2019-02-07T12:36:35.384Z,7.72
2019-02-07T12:37:35.376Z,7.75
2019-02-07T12:38:35.367Z,7.75
2019-02-07T12:39:35.360Z,7.60
2019-02-07T12:40:35.352Z,7.56
2019-02-07T12:41:35.344Z,7.42
2019-02-07T12:42:35.339Z,7.51
2019-02-07T12:43:35.331Z,7.50
2019-02-07T12:44:35.325Z,7.43
2019-02-07T12:45:35.315Z,7.47
2019-02-07T12:46:35.313Z,7.42
2019-02-07T12:47:35.300Z,7.43
2019-02-07T12:48:35.294Z,7.47
2019-02-07T12:49:35.285Z,7.50
2019-02-07T12:50:35.280Z,7.50
2019-02-07T12:51:35.268Z,7.56
2019-02-07T12:52:35.261Z,7.57
2019-02-07T12:53:35.260Z,7.42
2019-02-07T12:54:35.245Z,7.40
2019-02-07T12:55:35.240Z,7.42
2019-02-07T12:56:35.233Z,7.40
2019-02-07T12:57:35.223Z,7.36
2019-02-07T12:58:35.218Z,7.42
2019-02-07T12:59:35.208Z,7.40
2019-02-07T13:00:35.203Z,7.43
2019-02-07T13:01:35.191Z,7.42
2019-02-07T13:02:35.186Z,7.35
2019-02-07T13:03:35.179Z,7.43
2019-02-07T13:04:35.171Z,7.53
2019-02-07T13:05:35.165Z,7.54
2019-02-07T13:06:35.176Z,7.50
2019-02-07T13:07:35.147Z,7.50
2019-02-07T13:08:35.138Z,7.54
2019-02-07T13:09:35.134Z,7.56
2019-02-07T13:10:35.125Z,7.53
2019-02-07T13:11:35.116Z,7.57
2019-02-07T13:12:35.131Z,7.48
2019-02-07T13:13:35.136Z,7.54
2019-02-07T13:14:35.096Z,7.54
2019-02-07T13:15:35.113Z,7.51
2019-02-07T13:16:35.107Z,7.63
2019-02-07T13:17:35.074Z,7.51
2019-02-07T13:18:35.064Z,7.56